Accueil
METAR-TAF:

METAR-TAF

Aéroports :

Winnsboro, Caroline du Sud, États-Unis

latitude: 34-18-56N, longitude: 081-06-32W, altitude: 176 m

Observation

Le bulletin a été fait il y a 17 minutes, à 01:15 UTC
Vent 7 kt de sud
Température 13°C
Humidité 58%
Pression 1018 hPa
Visibilité: 16.1 km
Ciel clair

METAR: KFDW 120115Z AUTO 19007KT 10SM CLR 13/05 A3005 RMK AO1

Heure: 20:32 (01:32 UTC)


TAF: absent

Observations et prévisions météorologiques de plus de 4000 aéroports (messages METAR et TAF).

Les stations disponibles sont représentées par des disques jaunes et rouges sur la carte.

Passer la souris dessus pour voir le nom de la station.

Cliquer dessus pour voir les observations et prévisions météorologiques.

Pour changer de carte: cliquez sur les boutons verts avec une croix noire pour zoomer, sur le bouton vert avec un tiret pour effectuer un zoom arrière, ou sur les flèches vertes pour les cartes adjacentes.


METAR-TAF: